createdAt,value
2016-10-08T00:00:35.001Z,1024.48
2016-10-08T00:01:35.027Z,1024.5
2016-10-08T00:02:35.046Z,1024.54
2016-10-08T00:03:35.060Z,1024.48
2016-10-08T00:04:35.073Z,1024.51
2016-10-08T00:05:35.100Z,1024.47
2016-10-08T00:06:35.112Z,1024.49
2016-10-08T00:07:35.128Z,1024.46
2016-10-08T00:08:35.155Z,1024.46
2016-10-08T00:09:35.166Z,1024.48
2016-10-08T00:10:35.185Z,1024.47
2016-10-08T00:11:35.207Z,1024.51
2016-10-08T00:12:35.224Z,1024.52
2016-10-08T00:13:35.244Z,1024.49
2016-10-08T00:14:35.259Z,1024.53
2016-10-08T00:15:35.276Z,1024.57
2016-10-08T00:16:35.297Z,1024.56
2016-10-08T00:17:35.318Z,1024.56
2016-10-08T00:18:35.337Z,1024.57
2016-10-08T00:19:35.356Z,1024.62
2016-10-08T00:20:35.447Z,1024.6
2016-10-08T00:21:35.391Z,1024.58
2016-10-08T00:22:35.415Z,1024.63
2016-10-08T00:23:35.425Z,1024.6
2016-10-08T00:24:35.447Z,1024.63
2016-10-08T00:25:35.463Z,1024.62
2016-10-08T00:26:35.487Z,1024.62
2016-10-08T00:27:35.512Z,1024.63
2016-10-08T00:28:35.517Z,1024.63
2016-10-08T00:29:35.538Z,1024.65
2016-10-08T00:30:35.551Z,1024.64
2016-10-08T00:31:35.570Z,1024.59
2016-10-08T00:32:35.588Z,1024.64
2016-10-08T00:33:35.607Z,1024.7
2016-10-08T00:34:35.623Z,1024.68
2016-10-08T00:35:35.650Z,1024.7
2016-10-08T00:36:35.665Z,1024.66
2016-10-08T00:37:35.680Z,1024.69
2016-10-08T00:38:35.704Z,1024.66
2016-10-08T00:39:35.715Z,1024.69
2016-10-08T00:40:35.734Z,1024.65
2016-10-08T00:41:35.752Z,1024.64
2016-10-08T00:42:35.772Z,1024.67
2016-10-08T00:43:35.792Z,1024.68
2016-10-08T00:44:35.813Z,1024.68
2016-10-08T00:45:35.826Z,1024.68
2016-10-08T00:46:35.845Z,1024.68
2016-10-08T00:47:35.864Z,1024.65
2016-10-08T00:48:35.887Z,1024.67
2016-10-08T00:49:35.899Z,1024.64
2016-10-08T00:50:35.925Z,1024.66
2016-10-08T00:51:35.934Z,1024.64
2016-10-08T00:52:35.957Z,1024.64
2016-10-08T00:53:35.973Z,1024.65
2016-10-08T00:54:35.987Z,1024.64
2016-10-08T00:55:36.011Z,1024.67
2016-10-08T00:56:36.029Z,1024.63
2016-10-08T00:57:36.053Z,1024.64
2016-10-08T00:58:36.068Z,1024.64
2016-10-08T00:59:36.083Z,1024.67
2016-10-08T01:00:36.107Z,1024.65
2016-10-08T01:01:36.121Z,1024.67
2016-10-08T01:02:36.139Z,1024.61
2016-10-08T01:03:36.205Z,1024.62
2016-10-08T01:04:36.176Z,1024.63
2016-10-08T01:05:36.196Z,1024.61
2016-10-08T01:06:36.216Z,1024.62
2016-10-08T01:07:36.225Z,1024.63
2016-10-08T01:08:36.246Z,1024.61
2016-10-08T01:09:36.265Z,1024.7
2016-10-08T01:10:36.286Z,1024.67
2016-10-08T01:11:36.304Z,1024.64
2016-10-08T01:12:36.326Z,1024.61
2016-10-08T01:13:36.344Z,1024.61
2016-10-08T01:14:36.358Z,1024.6
2016-10-08T01:15:36.376Z,1024.59
2016-10-08T01:16:36.397Z,1024.6
2016-10-08T01:17:36.416Z,1024.63
2016-10-08T01:18:36.435Z,1024.56
2016-10-08T01:19:36.445Z,1024.58
2016-10-08T01:20:36.466Z,1024.58
2016-10-08T01:21:36.484Z,1024.58
2016-10-08T01:22:36.498Z,1024.57
2016-10-08T01:23:36.518Z,1024.55
2016-10-08T01:24:36.538Z,1024.58
2016-10-08T01:25:36.557Z,1024.54
2016-10-08T01:26:36.575Z,1024.51
2016-10-08T01:27:36.596Z,1024.47
2016-10-08T01:28:36.617Z,1024.47
2016-10-08T01:29:36.625Z,1024.47
2016-10-08T01:30:36.644Z,1024.41
2016-10-08T01:31:36.668Z,1024.43
2016-10-08T01:32:36.683Z,1024.42
2016-10-08T01:33:36.706Z,1024.44
2016-10-08T01:34:36.716Z,1024.41
2016-10-08T01:35:36.736Z,1024.42
2016-10-08T01:36:36.758Z,1024.41
2016-10-08T01:37:36.774Z,1024.39
2016-10-08T01:38:36.791Z,1024.37
2016-10-08T01:39:36.815Z,1024.38
2016-10-08T01:40:36.823Z,1024.34
2016-10-08T01:41:36.847Z,1024.29
2016-10-08T01:42:36.868Z,1024.31
2016-10-08T01:43:36.882Z,1024.31
2016-10-08T01:44:36.897Z,1024.28
2016-10-08T01:45:36.918Z,1024.32
2016-10-08T01:46:36.938Z,1024.28
2016-10-08T01:47:36.952Z,1024.27
2016-10-08T01:48:36.977Z,1024.25
2016-10-08T01:49:36.986Z,1024.25
2016-10-08T01:50:37.007Z,1024.25
2016-10-08T01:51:37.026Z,1024.18
2016-10-08T01:52:37.043Z,1024.22
2016-10-08T01:53:37.068Z,1024.19
2016-10-08T01:54:37.083Z,1024.2
2016-10-08T01:55:37.096Z,1024.18
2016-10-08T01:56:37.114Z,1024.19
2016-10-08T01:57:37.130Z,1024.23
2016-10-08T01:58:37.157Z,1024.15
2016-10-08T01:59:37.165Z,1024.15
2016-10-08T02:00:37.179Z,1024.12
2016-10-08T02:01:37.197Z,1024.15
2016-10-08T02:02:37.216Z,1024.16
2016-10-08T02:03:37.232Z,1024.13
2016-10-08T02:04:37.256Z,1024.15
2016-10-08T02:05:37.271Z,1024.16
2016-10-08T02:06:37.285Z,1024.14
2016-10-08T02:07:37.306Z,1024.19
2016-10-08T02:08:37.325Z,1024.17
2016-10-08T02:09:37.347Z,1024.19
2016-10-08T02:10:37.355Z,1024.18
2016-10-08T02:11:37.376Z,1024.14
2016-10-08T02:12:37.392Z,1024.13
2016-10-08T02:13:37.419Z,1024.15
2016-10-08T02:14:37.427Z,1024.13
2016-10-08T02:15:37.445Z,1024.13
2016-10-08T02:16:37.468Z,1024.1
2016-10-08T02:17:37.486Z,1024.11
2016-10-08T02:18:37.497Z,1024.12
2016-10-08T02:19:37.515Z,1024.13
2016-10-08T02:20:37.538Z,1024.06
2016-10-08T02:21:37.631Z,1024.08
2016-10-08T02:22:37.565Z,1024.1
2016-10-08T02:23:37.578Z,1024.09
2016-10-08T02:24:37.601Z,1024.08
2016-10-08T02:25:37.618Z,1024.06
2016-10-08T02:26:37.633Z,1024.1
2016-10-08T02:27:37.658Z,1024.09
2016-10-08T02:28:37.667Z,1024.08
2016-10-08T02:29:37.685Z,1024.04
2016-10-08T02:30:37.699Z,1024.07
2016-10-08T02:31:37.717Z,1024.08
2016-10-08T02:32:37.738Z,1024.09
2016-10-08T02:33:37.752Z,1024.04
2016-10-08T02:34:37.775Z,1024.09
2016-10-08T02:35:37.784Z,1024.06
2016-10-08T02:36:37.805Z,1024.09
2016-10-08T02:37:37.819Z,1024.1
2016-10-08T02:38:37.835Z,1024.06
2016-10-08T02:39:37.856Z,1024.07
2016-10-08T02:40:37.893Z,1024.08
2016-10-08T02:41:37.888Z,1024.08
2016-10-08T02:42:37.905Z,1024.08
2016-10-08T02:43:37.920Z,1024.08
2016-10-08T02:44:37.938Z,1024.07
2016-10-08T02:45:37.957Z,1024.07
2016-10-08T02:46:37.976Z,1024.06
2016-10-08T02:47:37.986Z,1024.04
2016-10-08T02:48:38.008Z,1024.02
2016-10-08T02:49:38.128Z,1024.05
2016-10-08T02:50:38.044Z,1024.06
2016-10-08T02:51:38.056Z,1024.03
2016-10-08T02:52:38.083Z,1024.07
2016-10-08T02:53:38.088Z,1024.04
2016-10-08T02:54:38.105Z,1024.04
2016-10-08T02:55:38.118Z,1024.04
2016-10-08T02:56:38.145Z,1024.06
2016-10-08T02:57:38.152Z,1024.08
2016-10-08T02:58:38.177Z,1024.11
2016-10-08T02:59:38.188Z,1024.07
2016-10-08T03:00:38.217Z,1024.1
2016-10-08T03:01:38.224Z,1024.1
2016-10-08T03:02:38.240Z,1024.09
2016-10-08T03:03:38.254Z,1024.04
2016-10-08T03:04:38.325Z,1024.06
2016-10-08T03:05:38.285Z,1024.04
2016-10-08T03:06:38.301Z,1024.04
2016-10-08T03:07:38.323Z,1024.03
2016-10-08T03:08:38.339Z,1024.05
2016-10-08T03:09:38.353Z,1024.05
2016-10-08T03:10:38.371Z,1024.06
2016-10-08T03:11:38.390Z,1024.09
2016-10-08T03:12:38.406Z,1024.07
2016-10-08T03:13:38.443Z,1024.08
2016-10-08T03:14:38.445Z,1024.07
2016-10-08T03:15:38.454Z,1024.08
2016-10-08T03:16:38.468Z,1024.09
2016-10-08T03:17:38.544Z,1024.03
2016-10-08T03:18:38.504Z,1024.05
2016-10-08T03:19:38.524Z,1024.05
2016-10-08T03:20:38.533Z,1024.03
2016-10-08T03:21:38.549Z,1024.04
2016-10-08T03:22:38.565Z,1024.01
2016-10-08T03:23:38.594Z,1024.02
2016-10-08T03:24:38.603Z,1024.02
2016-10-08T03:25:38.623Z,1024.02
2016-10-08T03:26:38.634Z,1024.02
2016-10-08T03:27:38.655Z,1024.01
2016-10-08T03:28:38.669Z,1023.99
2016-10-08T03:29:38.682Z,1024.04
2016-10-08T03:30:38.706Z,1023.98
2016-10-08T03:31:38.714Z,1023.99
2016-10-08T03:32:38.733Z,1023.98
2016-10-08T03:33:38.752Z,1024.02
2016-10-08T03:34:38.762Z,1024.02
2016-10-08T03:35:38.781Z,1024.02
2016-10-08T03:36:38.799Z,1024.03
2016-10-08T03:37:38.813Z,1024.06
2016-10-08T03:38:38.832Z,1024.08
2016-10-08T03:39:38.852Z,1024.08
2016-10-08T03:40:38.862Z,1024.09
2016-10-08T03:41:38.883Z,1024.11
2016-10-08T03:42:38.893Z,1024.07
2016-10-08T03:43:38.905Z,1024.11
2016-10-08T03:44:38.921Z,1024.09
2016-10-08T03:45:38.937Z,1024.13
2016-10-08T03:46:38.960Z,1024.11
2016-10-08T03:47:38.972Z,1024.1
2016-10-08T03:48:38.991Z,1024.09
2016-10-08T03:49:39.001Z,1024.12
2016-10-08T03:50:39.017Z,1024.15
2016-10-08T03:51:39.033Z,1024.16
2016-10-08T03:52:39.047Z,1024.18
2016-10-08T03:53:39.067Z,1024.2
2016-10-08T03:54:39.080Z,1024.21
2016-10-08T03:55:39.099Z,1024.2
2016-10-08T03:56:39.110Z,1024.22
2016-10-08T03:57:39.129Z,1024.19
2016-10-08T03:58:39.151Z,1024.17
2016-10-08T03:59:39.163Z,1024.23
2016-10-08T04:00:39.188Z,1024.2
2016-10-08T04:01:39.195Z,1024.23
2016-10-08T04:02:39.409Z,1024.28
2016-10-08T04:03:39.228Z,1024.23
2016-10-08T04:04:39.241Z,1024.25
2016-10-08T04:05:39.258Z,1024.25
2016-10-08T04:06:39.269Z,1024.26
2016-10-08T04:07:39.287Z,1024.26
2016-10-08T04:08:39.300Z,1024.26
2016-10-08T04:09:39.327Z,1024.27
2016-10-08T04:10:39.338Z,1024.21
2016-10-08T04:11:39.349Z,1024.23
2016-10-08T04:12:39.374Z,1024.27
2016-10-08T04:13:39.379Z,1024.19
2016-10-08T04:14:39.400Z,1024.23
2016-10-08T04:15:39.409Z,1024.22
2016-10-08T04:16:39.430Z,1024.22
2016-10-08T04:17:39.444Z,1024.24
2016-10-08T04:18:39.463Z,1024.25
2016-10-08T04:19:39.476Z,1024.24
2016-10-08T04:20:39.495Z,1024.23
2016-10-08T04:21:39.508Z,1024.26
2016-10-08T04:22:39.524Z,1024.29
2016-10-08T04:23:39.541Z,1024.27
2016-10-08T04:24:39.561Z,1024.27
2016-10-08T04:25:39.567Z,1024.25
2016-10-08T04:26:39.584Z,1024.25
2016-10-08T04:27:39.607Z,1024.25
2016-10-08T04:28:39.616Z,1024.27
2016-10-08T04:29:39.635Z,1024.25
2016-10-08T04:30:39.649Z,1024.27
2016-10-08T04:31:39.668Z,1024.27
2016-10-08T04:32:39.686Z,1024.29
2016-10-08T04:33:39.706Z,1024.26
2016-10-08T04:34:39.716Z,1024.27
2016-10-08T04:35:39.727Z,1024.26
2016-10-08T04:36:39.747Z,1024.24
2016-10-08T04:37:39.872Z,1024.28
2016-10-08T04:38:39.778Z,1024.23
2016-10-08T04:39:39.847Z,1024.3
2016-10-08T04:40:39.810Z,1024.25
2016-10-08T04:41:39.829Z,1024.29
2016-10-08T04:42:39.847Z,1024.23
2016-10-08T04:43:39.866Z,1024.22
2016-10-08T04:44:39.880Z,1024.19
2016-10-08T04:45:39.898Z,1024.19
2016-10-08T04:46:39.911Z,1024.2
2016-10-08T04:47:39.928Z,1024.18
2016-10-08T04:48:39.939Z,1024.19
2016-10-08T04:49:39.958Z,1024.23
2016-10-08T04:50:39.985Z,1024.21
2016-10-08T04:51:39.989Z,1024.23
2016-10-08T04:52:40.009Z,1024.21
2016-10-08T04:53:40.029Z,1024.18
2016-10-08T04:54:40.051Z,1024.17
2016-10-08T04:55:40.059Z,1024.2
2016-10-08T04:56:40.078Z,1024.2
2016-10-08T04:57:40.088Z,1024.2
2016-10-08T04:58:40.111Z,1024.19
2016-10-08T04:59:40.119Z,1024.19
2016-10-08T05:00:40.136Z,1024.2
2016-10-08T05:01:40.163Z,1024.21
2016-10-08T05:02:40.170Z,1024.19
2016-10-08T05:03:40.189Z,1024.15
2016-10-08T05:04:40.211Z,1024.17
2016-10-08T05:05:40.224Z,1024.19
2016-10-08T05:06:40.240Z,1024.18
2016-10-08T05:07:40.303Z,1024.23
2016-10-08T05:08:40.266Z,1024.22
2016-10-08T05:09:40.282Z,1024.2
2016-10-08T05:10:40.298Z,1024.22
2016-10-08T05:11:40.320Z,1024.19
2016-10-08T05:12:40.330Z,1024.19
2016-10-08T05:13:40.346Z,1024.18
2016-10-08T05:14:40.366Z,1024.19
2016-10-08T05:15:40.382Z,1024.14
2016-10-08T05:16:40.400Z,1024.17
2016-10-08T05:17:40.420Z,1024.18
2016-10-08T05:18:40.432Z,1024.12
2016-10-08T05:19:40.448Z,1024.11
2016-10-08T05:20:40.512Z,1024.13
2016-10-08T05:21:40.479Z,1024.16
2016-10-08T05:22:40.493Z,1024.17
2016-10-08T05:23:40.509Z,1024.18
2016-10-08T05:24:40.533Z,1024.21
2016-10-08T05:25:40.545Z,1024.15
2016-10-08T05:26:40.562Z,1024.2
2016-10-08T05:27:40.578Z,1024.26
2016-10-08T05:28:40.593Z,1024.26
2016-10-08T05:29:40.609Z,1024.25
2016-10-08T05:30:40.622Z,1024.25
2016-10-08T05:31:40.641Z,1024.26
2016-10-08T05:32:40.649Z,1024.26
2016-10-08T05:33:40.666Z,1024.29
2016-10-08T05:34:40.682Z,1024.25
2016-10-08T05:35:40.701Z,1024.22
2016-10-08T05:36:40.716Z,1024.24
2016-10-08T05:37:40.732Z,1024.26
2016-10-08T05:38:40.748Z,1024.28
2016-10-08T05:39:40.764Z,1024.29
2016-10-08T05:40:40.780Z,1024.3
2016-10-08T05:41:40.795Z,1024.3
2016-10-08T05:42:40.811Z,1024.31
2016-10-08T05:43:40.820Z,1024.35
2016-10-08T05:44:40.844Z,1024.29
2016-10-08T05:45:40.861Z,1024.32
2016-10-08T05:46:40.870Z,1024.29
2016-10-08T05:47:40.889Z,1024.3
2016-10-08T05:48:40.909Z,1024.38
2016-10-08T05:49:40.922Z,1024.36
2016-10-08T05:50:40.941Z,1024.42
2016-10-08T05:51:40.947Z,1024.44
2016-10-08T05:52:40.962Z,1024.44
2016-10-08T05:53:40.983Z,1024.44
2016-10-08T05:54:40.995Z,1024.5
2016-10-08T05:55:41.016Z,1024.48
2016-10-08T05:56:41.036Z,1024.49
2016-10-08T05:57:41.045Z,1024.47
2016-10-08T05:58:41.066Z,1024.46
2016-10-08T05:59:41.075Z,1024.44
2016-10-08T06:00:41.097Z,1024.44
2016-10-08T06:01:41.107Z,1024.46
2016-10-08T06:02:41.126Z,1024.42
2016-10-08T06:03:41.149Z,1024.43
2016-10-08T06:04:41.154Z,1024.41
2016-10-08T06:05:41.173Z,1024.4
2016-10-08T06:06:41.181Z,1024.41
2016-10-08T06:07:41.203Z,1024.39
2016-10-08T06:08:41.216Z,1024.38
2016-10-08T06:09:41.232Z,1024.37
2016-10-08T06:10:41.249Z,1024.33
2016-10-08T06:11:41.265Z,1024.4
2016-10-08T06:12:41.282Z,1024.4
2016-10-08T06:13:41.297Z,1024.42
2016-10-08T06:14:41.312Z,1024.41
2016-10-08T06:15:41.331Z,1024.37
2016-10-08T06:16:41.359Z,1024.41
2016-10-08T06:17:42.001Z,1024.43
2016-10-08T06:18:41.377Z,1024.47
2016-10-08T06:19:41.389Z,1024.45
2016-10-08T06:20:41.407Z,1024.46
2016-10-08T06:21:41.416Z,1024.45
2016-10-08T06:22:41.443Z,1024.48
2016-10-08T06:23:41.451Z,1024.51
2016-10-08T06:24:41.468Z,1024.51
2016-10-08T06:25:41.487Z,1024.51
2016-10-08T06:26:41.508Z,1024.44
2016-10-08T06:27:43.472Z,1024.48
2016-10-08T06:28:41.539Z,1024.51
2016-10-08T06:29:41.634Z,1024.57
2016-10-08T06:30:41.561Z,1024.6
2016-10-08T06:31:41.581Z,1024.62
2016-10-08T06:32:41.598Z,1024.63
2016-10-08T06:33:41.619Z,1024.62
2016-10-08T06:34:41.889Z,1024.6
2016-10-08T06:35:41.649Z,1024.64
2016-10-08T06:36:41.916Z,1024.63
2016-10-08T06:37:41.879Z,1024.66
2016-10-08T06:38:41.985Z,1024.7
2016-10-08T06:39:41.865Z,1024.68
2016-10-08T06:40:42.026Z,1024.64
2016-10-08T06:41:41.897Z,1024.6
2016-10-08T06:42:42.015Z,1024.63
2016-10-08T06:43:41.878Z,1024.63
2016-10-08T06:44:42.055Z,1024.63
2016-10-08T06:45:41.963Z,1024.63
2016-10-08T06:46:42.078Z,1024.58
2016-10-08T06:47:41.947Z,1024.6
2016-10-08T06:48:42.120Z,1024.58
2016-10-08T06:49:41.882Z,1024.63
2016-10-08T06:50:42.097Z,1024.69
2016-10-08T06:51:41.916Z,1024.7
2016-10-08T06:52:42.202Z,1024.71
2016-10-08T06:53:41.958Z,1024.67
2016-10-08T06:54:41.970Z,1024.66
2016-10-08T06:55:41.995Z,1024.69
2016-10-08T06:56:42.007Z,1024.69
2016-10-08T06:57:42.227Z,1024.68
2016-10-08T06:58:42.043Z,1024.69
2016-10-08T06:59:42.164Z,1024.68
2016-10-08T07:00:42.084Z,1024.71
2016-10-08T07:01:42.307Z,1024.69
2016-10-08T07:02:42.118Z,1024.76
2016-10-08T07:03:42.187Z,1024.8
2016-10-08T07:04:42.153Z,1024.78
2016-10-08T07:05:42.173Z,1024.82
2016-10-08T07:06:42.193Z,1024.84
2016-10-08T07:07:42.215Z,1024.8
2016-10-08T07:08:42.241Z,1024.82
2016-10-08T07:09:42.253Z,1024.78
2016-10-08T07:10:42.430Z,1024.78
2016-10-08T07:11:42.290Z,1024.79
2016-10-08T07:12:42.331Z,1024.76
2016-10-08T07:13:42.324Z,1024.74
2016-10-08T07:14:42.353Z,1024.75
2016-10-08T07:15:42.376Z,1024.79
2016-10-08T07:16:42.391Z,1024.81
2016-10-08T07:17:42.402Z,1024.76
2016-10-08T07:18:42.422Z,1024.78
2016-10-08T07:19:42.444Z,1024.84
2016-10-08T07:20:42.464Z,1024.77
2016-10-08T07:21:42.480Z,1024.77
2016-10-08T07:22:42.497Z,1024.8
2016-10-08T07:23:42.524Z,1024.82
2016-10-08T07:24:42.538Z,1024.79
2016-10-08T07:25:42.558Z,1024.82
2016-10-08T07:26:42.580Z,1024.83
2016-10-08T07:27:42.595Z,1024.82
2016-10-08T07:28:42.618Z,1024.81
2016-10-08T07:29:42.637Z,1024.83
2016-10-08T07:30:42.653Z,1024.83
2016-10-08T07:31:42.671Z,1024.83
2016-10-08T07:32:42.689Z,1024.82
2016-10-08T07:33:42.707Z,1024.83
2016-10-08T07:34:42.731Z,1024.87
2016-10-08T07:35:42.748Z,1024.85
2016-10-08T07:36:42.771Z,1024.87
2016-10-08T07:37:42.785Z,1024.85
2016-10-08T07:38:42.804Z,1024.86
2016-10-08T07:39:42.843Z,1024.85
2016-10-08T07:40:42.843Z,1024.87
2016-10-08T07:41:42.863Z,1024.93
2016-10-08T07:42:42.879Z,1024.95
2016-10-08T07:43:42.901Z,1024.9
2016-10-08T07:44:42.914Z,1024.95
2016-10-08T07:45:42.931Z,1024.96
2016-10-08T07:46:43.008Z,1024.95
2016-10-08T07:47:42.968Z,1024.99
2016-10-08T07:48:42.992Z,1024.98
2016-10-08T07:49:43.011Z,1025
2016-10-08T07:50:43.030Z,1025.04
2016-10-08T07:51:43.049Z,1025.01
2016-10-08T07:52:43.068Z,1025.04
2016-10-08T07:53:43.079Z,1025.07
2016-10-08T07:54:43.098Z,1025.03
2016-10-08T07:55:43.117Z,1025.08
2016-10-08T07:56:43.196Z,1024.98
2016-10-08T07:57:43.157Z,1025.03
2016-10-08T07:58:43.176Z,1025.05
2016-10-08T07:59:43.196Z,1025.01
2016-10-08T08:00:43.219Z,1024.95
2016-10-08T08:01:43.437Z,1025.04
2016-10-08T08:02:43.254Z,1024.99
2016-10-08T08:03:43.268Z,1025.02
2016-10-08T08:04:43.289Z,1025.17
2016-10-08T08:05:43.308Z,1025.01
2016-10-08T08:06:43.329Z,1025.03
2016-10-08T08:07:43.346Z,1025.06
2016-10-08T08:08:43.798Z,1025.08
2016-10-08T08:09:43.386Z,1025.02
2016-10-08T08:10:43.545Z,1025.03
2016-10-08T08:11:43.423Z,1025.07
2016-10-08T08:12:43.733Z,1025.06
2016-10-08T08:13:43.461Z,1025.07
2016-10-08T08:14:43.490Z,1025.05
2016-10-08T08:15:43.779Z,1025.15
2016-10-08T08:16:43.810Z,1025.06
2016-10-08T08:17:43.538Z,1025.05
2016-10-08T08:18:43.807Z,1025.09
2016-10-08T08:19:43.576Z,1025.07
2016-10-08T08:20:43.844Z,1025.09
2016-10-08T08:21:43.913Z,1025.1
2016-10-08T08:22:43.627Z,1025.17
2016-10-08T08:23:43.648Z,1025.14
2016-10-08T08:24:43.674Z,1025.11
2016-10-08T08:25:43.694Z,1025.19
2016-10-08T08:26:43.774Z,1025.17
2016-10-08T08:27:44.035Z,1025.23
2016-10-08T08:28:44.111Z,1025.17
2016-10-08T08:29:43.771Z,1025.18
2016-10-08T08:30:43.822Z,1025.19
2016-10-08T08:31:43.879Z,1025.18
2016-10-08T08:32:43.824Z,1025.25
2016-10-08T08:33:43.839Z,1025.2
2016-10-08T08:34:43.861Z,1025.25
2016-10-08T08:35:44.166Z,1025.24
2016-10-08T08:36:44.129Z,1025.26
2016-10-08T08:37:44.013Z,1025.28
2016-10-08T08:38:43.932Z,1025.25
2016-10-08T08:39:43.960Z,1025.26
2016-10-08T08:40:43.969Z,1025.26
2016-10-08T08:41:44.042Z,1025.24
2016-10-08T08:42:44.010Z,1025.26
2016-10-08T08:43:44.041Z,1025.24
2016-10-08T08:44:44.059Z,1025.26
2016-10-08T08:45:44.070Z,1025.23
2016-10-08T08:46:44.095Z,1025.31
2016-10-08T08:47:44.122Z,1025.28
2016-10-08T08:48:44.138Z,1025.29
2016-10-08T08:49:44.146Z,1025.31
2016-10-08T08:50:44.299Z,1025.28
2016-10-08T08:51:44.191Z,1025.25
2016-10-08T08:52:44.213Z,1025.28
2016-10-08T08:53:44.232Z,1025.28
2016-10-08T08:54:44.255Z,1025.28
2016-10-08T08:55:44.270Z,1025.3
2016-10-08T08:56:44.289Z,1025.29
2016-10-08T08:57:44.308Z,1025.28
2016-10-08T08:58:44.339Z,1025.27
2016-10-08T08:59:44.359Z,1025.29
2016-10-08T09:00:44.379Z,1025.28
2016-10-08T09:01:44.388Z,1025.31
2016-10-08T09:02:44.417Z,1025.3
2016-10-08T09:03:44.437Z,1025.37
2016-10-08T09:04:44.447Z,1025.39
2016-10-08T09:05:44.489Z,1025.35
2016-10-08T09:06:44.493Z,1025.34
2016-10-08T09:07:44.519Z,1025.42
2016-10-08T09:08:44.532Z,1025.33
2016-10-08T09:09:44.558Z,1025.34
2016-10-08T09:10:44.573Z,1025.35
2016-10-08T09:11:44.592Z,1025.37
2016-10-08T09:12:44.613Z,1025.37
2016-10-08T09:13:44.637Z,1025.32
2016-10-08T09:14:44.655Z,1025.36
2016-10-08T09:15:44.677Z,1025.4
2016-10-08T09:16:44.697Z,1025.36
2016-10-08T09:17:44.718Z,1025.41
2016-10-08T09:18:44.737Z,1025.38
2016-10-08T09:19:44.758Z,1025.39
2016-10-08T09:20:44.778Z,1025.38
2016-10-08T09:21:44.805Z,1025.41
2016-10-08T09:22:44.818Z,1025.38
2016-10-08T09:23:44.843Z,1025.44
2016-10-08T09:24:44.862Z,1025.36
2016-10-08T09:25:44.879Z,1025.34
2016-10-08T09:26:44.903Z,1025.37
2016-10-08T09:27:44.931Z,1025.39
2016-10-08T09:28:44.950Z,1025.43
2016-10-08T09:29:44.962Z,1025.46
2016-10-08T09:30:44.985Z,1025.36
2016-10-08T09:31:45.012Z,1025.36
2016-10-08T09:32:45.165Z,1025.46
2016-10-08T09:33:45.124Z,1025.44
2016-10-08T09:34:45.152Z,1025.49
2016-10-08T09:35:45.428Z,1025.42
2016-10-08T09:36:45.606Z,1025.39
2016-10-08T09:37:45.394Z,1025.41
2016-10-08T09:38:45.630Z,1025.41
2016-10-08T09:39:45.465Z,1025.35
2016-10-08T09:40:45.203Z,1025.39
2016-10-08T09:41:45.382Z,1025.4
2016-10-08T09:42:45.463Z,1025.43
2016-10-08T09:43:45.467Z,1025.43
2016-10-08T09:44:45.427Z,1025.44
2016-10-08T09:45:45.447Z,1025.45
2016-10-08T09:46:45.324Z,1025.44
2016-10-08T09:47:45.383Z,1025.49
2016-10-08T09:48:45.484Z,1025.49
2016-10-08T09:49:45.447Z,1025.42
2016-10-08T09:50:45.402Z,1025.4
2016-10-08T09:51:45.430Z,1025.45
2016-10-08T09:52:45.447Z,1025.42
2016-10-08T09:53:45.471Z,1025.54
2016-10-08T09:54:45.495Z,1025.45
2016-10-08T09:55:45.508Z,1025.48
2016-10-08T09:56:45.527Z,1025.49
2016-10-08T09:57:45.630Z,1025.48
2016-10-08T09:58:45.573Z,1025.47
2016-10-08T09:59:45.597Z,1025.41
2016-10-08T10:00:45.618Z,1025.48
2016-10-08T10:01:45.689Z,1025.59
2016-10-08T10:02:45.673Z,1025.48
2016-10-08T10:03:45.825Z,1025.43
2016-10-08T10:04:45.784Z,1025.47
2016-10-08T10:05:45.961Z,1025.44
2016-10-08T10:06:46.040Z,1025.45
2016-10-08T10:07:45.899Z,1025.4
2016-10-08T10:08:45.784Z,1025.46
2016-10-08T10:09:45.811Z,1025.45
2016-10-08T10:10:45.902Z,1025.47
2016-10-08T10:11:46.125Z,1025.49
2016-10-08T10:12:46.072Z,1025.52
2016-10-08T10:13:45.892Z,1025.49
2016-10-08T10:14:45.919Z,1025.61
2016-10-08T10:15:45.934Z,1025.51
2016-10-08T10:16:45.954Z,1025.49
2016-10-08T10:17:45.980Z,1025.52
2016-10-08T10:18:45.997Z,1025.48
2016-10-08T10:19:46.115Z,1025.53
2016-10-08T10:20:46.035Z,1025.52
2016-10-08T10:21:46.066Z,1025.5
2016-10-08T10:22:46.080Z,1025.54
2016-10-08T10:23:46.096Z,1025.53
2016-10-08T10:24:46.124Z,1025.57
2016-10-08T10:25:46.145Z,1025.52
2016-10-08T10:26:46.163Z,1025.57
2016-10-08T10:27:46.180Z,1025.6
2016-10-08T10:28:46.198Z,1025.6
2016-10-08T10:29:46.230Z,1025.61
2016-10-08T10:30:46.342Z,1025.6
2016-10-08T10:31:46.263Z,1025.61
2016-10-08T10:32:46.297Z,1025.67
2016-10-08T10:33:46.303Z,1025.67
2016-10-08T10:34:46.324Z,1025.65
2016-10-08T10:35:46.344Z,1025.63
2016-10-08T10:36:46.365Z,1025.64
2016-10-08T10:37:46.385Z,1025.66
2016-10-08T10:38:46.405Z,1025.6
2016-10-08T10:39:46.426Z,1025.7
2016-10-08T10:40:46.449Z,1025.67
2016-10-08T10:41:46.514Z,1025.7
2016-10-08T10:42:46.483Z,1025.65
2016-10-08T10:43:46.509Z,1025.66
2016-10-08T10:44:46.534Z,1025.68
2016-10-08T10:45:46.548Z,1025.71
2016-10-08T10:46:46.576Z,1025.69
2016-10-08T10:47:46.590Z,1025.71
2016-10-08T10:48:46.622Z,1025.77
2016-10-08T10:49:46.637Z,1025.67
2016-10-08T10:50:46.655Z,1025.71
2016-10-08T10:51:46.678Z,1025.76
2016-10-08T10:52:46.697Z,1025.7
2016-10-08T10:53:46.716Z,1025.74
2016-10-08T10:54:46.897Z,1025.79
2016-10-08T10:55:46.768Z,1025.8
2016-10-08T10:56:46.777Z,1025.73
2016-10-08T10:57:46.969Z,1025.69
2016-10-08T10:58:46.833Z,1025.68
2016-10-08T10:59:46.854Z,1025.78
2016-10-08T11:00:46.870Z,1025.87
2016-10-08T11:01:46.887Z,1025.72
2016-10-08T11:02:46.906Z,1025.68
2016-10-08T11:03:46.926Z,1025.67
2016-10-08T11:04:46.948Z,1025.64
2016-10-08T11:05:46.963Z,1025.68
2016-10-08T11:06:46.989Z,1025.68
2016-10-08T11:07:47.011Z,1025.68
2016-10-08T11:08:47.031Z,1025.75
2016-10-08T11:09:47.057Z,1025.67
2016-10-08T11:10:47.077Z,1025.71
2016-10-08T11:11:47.097Z,1025.64
2016-10-08T11:12:47.118Z,1025.67
2016-10-08T11:13:47.151Z,1025.77
2016-10-08T11:14:47.163Z,1025.68
2016-10-08T11:15:47.203Z,1025.66
2016-10-08T11:16:47.244Z,1025.68
2016-10-08T11:17:47.221Z,1025.68
2016-10-08T11:18:47.249Z,1025.7
2016-10-08T11:19:47.260Z,1025.7
2016-10-08T11:20:47.295Z,1025.7
2016-10-08T11:21:47.510Z,1025.72
2016-10-08T11:22:47.327Z,1025.75
2016-10-08T11:23:47.358Z,1025.73
2016-10-08T11:24:47.371Z,1025.78
2016-10-08T11:25:47.397Z,1025.83
2016-10-08T11:26:47.419Z,1025.8
2016-10-08T11:27:47.440Z,1025.78
2016-10-08T11:28:47.458Z,1025.83
2016-10-08T11:29:47.482Z,1025.81
2016-10-08T11:30:47.513Z,1025.9
2016-10-08T11:31:48.022Z,1025.78
2016-10-08T11:32:47.597Z,1025.73
2016-10-08T11:33:48.071Z,1025.72
2016-10-08T11:34:47.755Z,1025.73
2016-10-08T11:35:47.622Z,1025.81
2016-10-08T11:36:47.841Z,1025.75
2016-10-08T11:37:48.170Z,1025.75
2016-10-08T11:38:48.320Z,1025.78
2016-10-08T11:39:48.246Z,1025.74
2016-10-08T11:40:47.720Z,1025.81
2016-10-08T11:41:47.742Z,1025.77
2016-10-08T11:42:48.088Z,1025.77
2016-10-08T11:43:48.019Z,1025.84
2016-10-08T11:44:47.931Z,1025.81
2016-10-08T11:45:48.530Z,1025.86
2016-10-08T11:46:48.072Z,1025.91
2016-10-08T11:47:48.422Z,1025.88
2016-10-08T11:48:48.739Z,1025.91
2016-10-08T11:49:48.121Z,1025.83
2016-10-08T11:50:48.124Z,1025.83
2016-10-08T11:51:48.193Z,1025.86
2016-10-08T11:52:48.376Z,1025.83
2016-10-08T11:53:48.377Z,1025.85
2016-10-08T11:54:48.539Z,1025.83
2016-10-08T11:55:48.801Z,1025.8
2016-10-08T11:56:48.683Z,1025.82
2016-10-08T11:57:48.186Z,1025.85
2016-10-08T11:58:48.287Z,1025.83
2016-10-08T11:59:48.143Z,1025.82
2016-10-08T12:00:48.537Z,1025.82
2016-10-08T12:01:48.661Z,1025.8
2016-10-08T12:02:48.706Z,1025.82
2016-10-08T12:03:48.748Z,1025.86
2016-10-08T12:04:48.553Z,1025.8
2016-10-08T12:05:48.876Z,1025.86
2016-10-08T12:06:48.413Z,1025.82
2016-10-08T12:07:48.783Z,1025.88